sensor_id;sensor_type;location;lat;lon;timestamp;temperature;humidity
58153;DHT22;43967;51.634;5.566;2023-04-24T00:01:55;18.40;75.00
58153;DHT22;43967;51.634;5.566;2023-04-24T00:07:17;18.40;75.00
58153;DHT22;43967;51.634;5.566;2023-04-24T00:12:38;18.40;75.00
58153;DHT22;43967;51.634;5.566;2023-04-24T00:18:00;18.40;75.00
58153;DHT22;43967;51.634;5.566;2023-04-24T00:23:21;18.30;75.00
58153;DHT22;43967;51.634;5.566;2023-04-24T00:28:42;18.30;75.00
58153;DHT22;43967;51.634;5.566;2023-04-24T00:34:04;18.30;75.00
58153;DHT22;43967;51.634;5.566;2023-04-24T00:39:25;18.30;75.00
58153;DHT22;43967;51.634;5.566;2023-04-24T00:44:47;18.30;75.00
58153;DHT22;43967;51.634;5.566;2023-04-24T00:50:08;18.30;75.00
58153;DHT22;43967;51.634;5.566;2023-04-24T00:55:30;18.30;75.00
58153;DHT22;43967;51.634;5.566;2023-04-24T01:00:51;18.30;75.00
58153;DHT22;43967;51.634;5.566;2023-04-24T01:06:13;18.30;75.00
58153;DHT22;43967;51.634;5.566;2023-04-24T01:11:35;18.30;75.00
58153;DHT22;43967;51.634;5.566;2023-04-24T01:16:57;18.30;75.00
58153;DHT22;43967;51.634;5.566;2023-04-24T01:22:18;18.30;75.00
58153;DHT22;43967;51.634;5.566;2023-04-24T01:27:39;18.30;75.00
58153;DHT22;43967;51.634;5.566;2023-04-24T01:33:01;18.30;75.10
58153;DHT22;43967;51.634;5.566;2023-04-24T01:50:20;18.20;74.90
58153;DHT22;43967;51.634;5.566;2023-04-24T01:55:41;18.20;75.00
58153;DHT22;43967;51.634;5.566;2023-04-24T02:01:02;18.20;75.00
58153;DHT22;43967;51.634;5.566;2023-04-24T02:06:24;18.20;75.00
58153;DHT22;43967;51.634;5.566;2023-04-24T02:11:45;18.20;75.00
58153;DHT22;43967;51.634;5.566;2023-04-24T02:17:06;18.20;75.00
58153;DHT22;43967;51.634;5.566;2023-04-24T02:22:27;18.20;75.00
58153;DHT22;43967;51.634;5.566;2023-04-24T02:27:49;18.20;75.00
58153;DHT22;43967;51.634;5.566;2023-04-24T02:33:11;18.20;75.00
58153;DHT22;43967;51.634;5.566;2023-04-24T02:38:32;18.20;75.00
58153;DHT22;43967;51.634;5.566;2023-04-24T02:43:53;18.20;75.00
58153;DHT22;43967;51.634;5.566;2023-04-24T02:49:15;18.20;75.00
58153;DHT22;43967;51.634;5.566;2023-04-24T02:54:36;18.10;75.00
58153;DHT22;43967;51.634;5.566;2023-04-24T02:59:57;18.10;75.00
58153;DHT22;43967;51.634;5.566;2023-04-24T03:05:18;18.10;75.00
58153;DHT22;43967;51.634;5.566;2023-04-24T03:10:40;18.10;75.00
58153;DHT22;43967;51.634;5.566;2023-04-24T03:16:01;18.10;75.00
58153;DHT22;43967;51.634;5.566;2023-04-24T03:21:22;18.10;75.00
58153;DHT22;43967;51.634;5.566;2023-04-24T03:26:44;18.10;74.90
58153;DHT22;43967;51.634;5.566;2023-04-24T03:32:05;18.10;75.00
58153;DHT22;43967;51.634;5.566;2023-04-24T03:37:26;18.10;75.00
58153;DHT22;43967;51.634;5.566;2023-04-24T03:42:47;18.10;75.00
58153;DHT22;43967;51.634;5.566;2023-04-24T03:48:09;18.10;74.90
58153;DHT22;43967;51.634;5.566;2023-04-24T03:53:30;18.00;74.90
58153;DHT22;43967;51.634;5.566;2023-04-24T03:58:51;18.10;74.90
58153;DHT22;43967;51.634;5.566;2023-04-24T04:04:12;18.00;75.00
58153;DHT22;43967;51.634;5.566;2023-04-24T04:09:34;18.00;75.00
58153;DHT22;43967;51.634;5.566;2023-04-24T04:14:55;18.00;74.90
58153;DHT22;43967;51.634;5.566;2023-04-24T04:20:16;18.00;74.90
58153;DHT22;43967;51.634;5.566;2023-04-24T04:25:37;18.00;74.90
58153;DHT22;43967;51.634;5.566;2023-04-24T04:30:59;18.00;74.90
58153;DHT22;43967;51.634;5.566;2023-04-24T04:36:20;18.00;74.90
58153;DHT22;43967;51.634;5.566;2023-04-24T04:41:41;18.00;74.90
58153;DHT22;43967;51.634;5.566;2023-04-24T04:47:03;18.00;75.00
58153;DHT22;43967;51.634;5.566;2023-04-24T04:52:24;18.00;75.00
58153;DHT22;43967;51.634;5.566;2023-04-24T04:57:46;18.00;75.00
58153;DHT22;43967;51.634;5.566;2023-04-24T05:03:07;18.00;74.90
58153;DHT22;43967;51.634;5.566;2023-04-24T05:08:28;18.00;75.00
58153;DHT22;43967;51.634;5.566;2023-04-24T05:13:50;18.00;75.00
58153;DHT22;43967;51.634;5.566;2023-04-24T05:19:11;18.00;74.90
58153;DHT22;43967;51.634;5.566;2023-04-24T05:24:33;17.90;74.80
58153;DHT22;43967;51.634;5.566;2023-04-24T05:29:55;17.90;75.00
58153;DHT22;43967;51.634;5.566;2023-04-24T05:35:16;17.90;75.10
58153;DHT22;43967;51.634;5.566;2023-04-24T05:40:37;17.90;75.20
58153;DHT22;43967;51.634;5.566;2023-04-24T05:45:58;17.90;75.40
58153;DHT22;43967;51.634;5.566;2023-04-24T05:51:20;17.90;75.70
58153;DHT22;43967;51.634;5.566;2023-04-24T05:56:41;17.90;75.90
58153;DHT22;43967;51.634;5.566;2023-04-24T06:02:03;17.90;76.10
58153;DHT22;43967;51.634;5.566;2023-04-24T06:07:25;17.90;76.00
58153;DHT22;43967;51.634;5.566;2023-04-24T06:12:46;18.00;75.90
58153;DHT22;43967;51.634;5.566;2023-04-24T06:18:07;18.00;75.80
58153;DHT22;43967;51.634;5.566;2023-04-24T06:23:28;18.00;75.60
58153;DHT22;43967;51.634;5.566;2023-04-24T06:28:50;18.00;75.60
58153;DHT22;43967;51.634;5.566;2023-04-24T06:34:11;18.10;75.50
58153;DHT22;43967;51.634;5.566;2023-04-24T06:39:32;18.00;75.40
58153;DHT22;43967;51.634;5.566;2023-04-24T06:44:54;18.00;75.40
58153;DHT22;43967;51.634;5.566;2023-04-24T06:50:15;18.00;75.30
58153;DHT22;43967;51.634;5.566;2023-04-24T06:55:36;18.00;75.30
58153;DHT22;43967;51.634;5.566;2023-04-24T07:00:58;18.00;75.20
58153;DHT22;43967;51.634;5.566;2023-04-24T07:06:19;18.00;75.20
58153;DHT22;43967;51.634;5.566;2023-04-24T07:11:40;18.00;75.10
58153;DHT22;43967;51.634;5.566;2023-04-24T07:17:03;18.00;75.10
58153;DHT22;43967;51.634;5.566;2023-04-24T07:22:24;18.00;75.20
58153;DHT22;43967;51.634;5.566;2023-04-24T07:27:45;17.90;75.10
58153;DHT22;43967;51.634;5.566;2023-04-24T07:33:07;17.90;75.10
58153;DHT22;43967;51.634;5.566;2023-04-24T07:38:29;17.90;75.10
58153;DHT22;43967;51.634;5.566;2023-04-24T07:43:51;17.90;75.10
58153;DHT22;43967;51.634;5.566;2023-04-24T07:49:12;17.90;75.10
58153;DHT22;43967;51.634;5.566;2023-04-24T07:54:33;17.90;75.00
58153;DHT22;43967;51.634;5.566;2023-04-24T07:59:55;17.90;75.10
58153;DHT22;43967;51.634;5.566;2023-04-24T08:05:16;17.90;75.10
58153;DHT22;43967;51.634;5.566;2023-04-24T08:15:59;17.70;60.50
58153;DHT22;43967;51.634;5.566;2023-04-24T08:21:20;17.70;61.90
58153;DHT22;43967;51.634;5.566;2023-04-24T08:26:41;17.70;62.30
58153;DHT22;43967;51.634;5.566;2023-04-24T08:32:02;17.70;62.40
58153;DHT22;43967;51.634;5.566;2023-04-24T08:37:25;17.70;62.50
58153;DHT22;43967;51.634;5.566;2023-04-24T08:42:46;17.70;62.80
58153;DHT22;43967;51.634;5.566;2023-04-24T08:48:08;17.70;62.90
58153;DHT22;43967;51.634;5.566;2023-04-24T08:53:30;17.70;63.40
58153;DHT22;43967;51.634;5.566;2023-04-24T08:58:53;17.70;63.30
58153;DHT22;43967;51.634;5.566;2023-04-24T09:04:15;17.70;63.40
58153;DHT22;43967;51.634;5.566;2023-04-24T09:09:38;17.70;63.90
58153;DHT22;43967;51.634;5.566;2023-04-24T09:15:01;17.70;64.10
58153;DHT22;43967;51.634;5.566;2023-04-24T09:20:22;17.70;64.10
58153;DHT22;43967;51.634;5.566;2023-04-24T09:25:44;17.70;64.70
58153;DHT22;43967;51.634;5.566;2023-04-24T09:36:32;17.70;65.10
58153;DHT22;43967;51.634;5.566;2023-04-24T09:41:55;17.70;65.00
58153;DHT22;43967;51.634;5.566;2023-04-24T09:47:17;17.70;64.90
58153;DHT22;43967;51.634;5.566;2023-04-24T09:52:46;17.70;64.70
58153;DHT22;43967;51.634;5.566;2023-04-24T09:58:08;17.70;64.50
58153;DHT22;43967;51.634;5.566;2023-04-24T10:03:30;17.70;64.40
58153;DHT22;43967;51.634;5.566;2023-04-24T10:08:52;17.60;64.20
58153;DHT22;43967;51.634;5.566;2023-04-24T10:14:15;17.60;64.00
58153;DHT22;43967;51.634;5.566;2023-04-24T10:19:37;17.60;63.80
58153;DHT22;43967;51.634;5.566;2023-04-24T10:24:59;17.60;63.70
58153;DHT22;43967;51.634;5.566;2023-04-24T10:30:20;17.60;63.60
58153;DHT22;43967;51.634;5.566;2023-04-24T10:35:45;17.60;63.60
58153;DHT22;43967;51.634;5.566;2023-04-24T10:41:08;17.60;63.50
58153;DHT22;43967;51.634;5.566;2023-04-24T10:46:30;17.60;63.50
58153;DHT22;43967;51.634;5.566;2023-04-24T10:51:52;17.60;63.30
58153;DHT22;43967;51.634;5.566;2023-04-24T11:02:41;17.60;63.10
58153;DHT22;43967;51.634;5.566;2023-04-24T11:08:38;17.60;63.10
58153;DHT22;43967;51.634;5.566;2023-04-24T11:19:25;17.60;63.10
58153;DHT22;43967;51.634;5.566;2023-04-24T11:30:09;17.60;63.10
58153;DHT22;43967;51.634;5.566;2023-04-24T11:35:35;17.60;63.10
58153;DHT22;43967;51.634;5.566;2023-04-24T11:40:57;17.60;63.00
58153;DHT22;43967;51.634;5.566;2023-04-24T11:46:18;17.60;63.00
58153;DHT22;43967;51.634;5.566;2023-04-24T11:51:41;17.60;63.00
58153;DHT22;43967;51.634;5.566;2023-04-24T11:57:05;17.50;62.80
58153;DHT22;43967;51.634;5.566;2023-04-24T12:02:27;17.50;62.80
58153;DHT22;43967;51.634;5.566;2023-04-24T12:07:48;17.50;62.70
58153;DHT22;43967;51.634;5.566;2023-04-24T12:13:09;17.60;62.70
58153;DHT22;43967;51.634;5.566;2023-04-24T12:18:31;17.50;62.60
58153;DHT22;43967;51.634;5.566;2023-04-24T12:23:54;17.50;62.50
58153;DHT22;43967;51.634;5.566;2023-04-24T12:29:22;17.50;62.50
58153;DHT22;43967;51.634;5.566;2023-04-24T12:34:43;17.60;62.50
58153;DHT22;43967;51.634;5.566;2023-04-24T12:40:07;17.60;62.50
58153;DHT22;43967;51.634;5.566;2023-04-24T12:45:29;17.50;62.40
58153;DHT22;43967;51.634;5.566;2023-04-24T12:50:50;17.50;62.40
58153;DHT22;43967;51.634;5.566;2023-04-24T12:56:11;17.50;62.40
58153;DHT22;43967;51.634;5.566;2023-04-24T13:01:33;17.50;62.30
58153;DHT22;43967;51.634;5.566;2023-04-24T13:06:54;17.50;62.30
58153;DHT22;43967;51.634;5.566;2023-04-24T13:12:15;17.50;62.40
58153;DHT22;43967;51.634;5.566;2023-04-24T13:17:37;17.50;62.20
58153;DHT22;43967;51.634;5.566;2023-04-24T13:22:58;17.50;62.20
58153;DHT22;43967;51.634;5.566;2023-04-24T13:28:19;17.50;62.20
58153;DHT22;43967;51.634;5.566;2023-04-24T13:33:41;17.50;62.20
58153;DHT22;43967;51.634;5.566;2023-04-24T13:39:02;17.50;62.20
58153;DHT22;43967;51.634;5.566;2023-04-24T13:44:24;17.50;62.20
58153;DHT22;43967;51.634;5.566;2023-04-24T13:49:46;17.50;62.20
58153;DHT22;43967;51.634;5.566;2023-04-24T13:55:07;17.50;62.20
58153;DHT22;43967;51.634;5.566;2023-04-24T14:00:28;17.50;62.10
58153;DHT22;43967;51.634;5.566;2023-04-24T14:05:50;17.50;62.10
58153;DHT22;43967;51.634;5.566;2023-04-24T14:11:11;17.50;62.10
58153;DHT22;43967;51.634;5.566;2023-04-24T14:16:32;17.50;62.10
58153;DHT22;43967;51.634;5.566;2023-04-24T14:21:53;17.50;62.10
58153;DHT22;43967;51.634;5.566;2023-04-24T14:27:15;17.50;62.10
58153;DHT22;43967;51.634;5.566;2023-04-24T14:32:37;17.50;62.00
58153;DHT22;43967;51.634;5.566;2023-04-24T14:37:58;17.50;62.00
58153;DHT22;43967;51.634;5.566;2023-04-24T14:43:20;17.50;62.00
58153;DHT22;43967;51.634;5.566;2023-04-24T14:48:41;17.60;62.10
58153;DHT22;43967;51.634;5.566;2023-04-24T14:54:02;17.50;62.00
58153;DHT22;43967;51.634;5.566;2023-04-24T14:59:23;17.50;62.00
58153;DHT22;43967;51.634;5.566;2023-04-24T15:04:45;17.50;62.00
58153;DHT22;43967;51.634;5.566;2023-04-24T15:10:06;17.50;62.00
58153;DHT22;43967;51.634;5.566;2023-04-24T15:15:28;17.50;62.00
58153;DHT22;43967;51.634;5.566;2023-04-24T15:20:49;17.50;61.90
58153;DHT22;43967;51.634;5.566;2023-04-24T15:26:11;17.50;61.90
58153;DHT22;43967;51.634;5.566;2023-04-24T15:31:33;17.50;61.80
58153;DHT22;43967;51.634;5.566;2023-04-24T15:36:54;17.50;61.80
58153;DHT22;43967;51.634;5.566;2023-04-24T15:42:15;17.50;61.80
58153;DHT22;43967;51.634;5.566;2023-04-24T15:47:37;17.50;61.70
58153;DHT22;43967;51.634;5.566;2023-04-24T15:52:58;17.50;61.70
58153;DHT22;43967;51.634;5.566;2023-04-24T15:58:20;17.50;61.80
58153;DHT22;43967;51.634;5.566;2023-04-24T16:03:41;17.50;61.80
58153;DHT22;43967;51.634;5.566;2023-04-24T16:09:02;17.50;61.80
58153;DHT22;43967;51.634;5.566;2023-04-24T16:14:24;17.50;61.80
58153;DHT22;43967;51.634;5.566;2023-04-24T16:19:45;17.50;61.70
58153;DHT22;43967;51.634;5.566;2023-04-24T16:25:07;17.50;61.80
58153;DHT22;43967;51.634;5.566;2023-04-24T16:30:29;17.50;61.70
58153;DHT22;43967;51.634;5.566;2023-04-24T16:35:50;17.50;61.70
58153;DHT22;43967;51.634;5.566;2023-04-24T16:41:12;17.50;61.70
58153;DHT22;43967;51.634;5.566;2023-04-24T16:46:33;17.50;61.70
58153;DHT22;43967;51.634;5.566;2023-04-24T16:51:55;17.50;61.70
58153;DHT22;43967;51.634;5.566;2023-04-24T16:57:16;17.50;61.70
58153;DHT22;43967;51.634;5.566;2023-04-24T17:02:37;17.50;61.70
58153;DHT22;43967;51.634;5.566;2023-04-24T17:07:58;17.50;61.70
58153;DHT22;43967;51.634;5.566;2023-04-24T17:13:20;17.50;61.60
58153;DHT22;43967;51.634;5.566;2023-04-24T17:18:41;17.50;62.30
58153;DHT22;43967;51.634;5.566;2023-04-24T17:24:02;17.50;61.50
58153;DHT22;43967;51.634;5.566;2023-04-24T17:29:24;17.50;61.50
58153;DHT22;43967;51.634;5.566;2023-04-24T17:34:45;17.50;61.50
58153;DHT22;43967;51.634;5.566;2023-04-24T17:40:07;17.50;61.50
58153;DHT22;43967;51.634;5.566;2023-04-24T17:45:28;17.50;61.40
58153;DHT22;43967;51.634;5.566;2023-04-24T17:50:49;17.50;61.40
58153;DHT22;43967;51.634;5.566;2023-04-24T17:56:11;17.50;61.40
58153;DHT22;43967;51.634;5.566;2023-04-24T18:01:32;17.50;61.40
58153;DHT22;43967;51.634;5.566;2023-04-24T18:06:53;17.50;61.40
58153;DHT22;43967;51.634;5.566;2023-04-24T18:12:15;17.40;61.60
58153;DHT22;43967;51.634;5.566;2023-04-24T18:17:36;17.40;61.80
58153;DHT22;43967;51.634;5.566;2023-04-24T18:22:57;17.40;62.00
58153;DHT22;43967;51.634;5.566;2023-04-24T18:28:18;17.40;62.10
58153;DHT22;43967;51.634;5.566;2023-04-24T18:33:40;17.40;62.30
58153;DHT22;43967;51.634;5.566;2023-04-24T18:39:02;17.50;62.40
58153;DHT22;43967;51.634;5.566;2023-04-24T18:44:23;17.50;62.50
58153;DHT22;43967;51.634;5.566;2023-04-24T18:49:44;17.50;62.40
58153;DHT22;43967;51.634;5.566;2023-04-24T18:55:06;17.50;62.30
58153;DHT22;43967;51.634;5.566;2023-04-24T19:00:27;17.50;62.30
58153;DHT22;43967;51.634;5.566;2023-04-24T19:05:48;17.50;62.20
58153;DHT22;43967;51.634;5.566;2023-04-24T19:11:10;17.50;62.00
58153;DHT22;43967;51.634;5.566;2023-04-24T19:16:31;17.50;61.90
58153;DHT22;43967;51.634;5.566;2023-04-24T19:21:53;17.60;61.80
58153;DHT22;43967;51.634;5.566;2023-04-24T19:27:14;17.60;61.50
58153;DHT22;43967;51.634;5.566;2023-04-24T19:32:35;17.60;61.40
58153;DHT22;43967;51.634;5.566;2023-04-24T19:37:57;17.60;61.30
58153;DHT22;43967;51.634;5.566;2023-04-24T19:43:18;17.60;61.20
58153;DHT22;43967;51.634;5.566;2023-04-24T19:48:39;17.60;60.90
58153;DHT22;43967;51.634;5.566;2023-04-24T19:54:01;17.60;60.70
58153;DHT22;43967;51.634;5.566;2023-04-24T19:59:22;17.50;60.50
58153;DHT22;43967;51.634;5.566;2023-04-24T20:04:43;17.50;60.50
58153;DHT22;43967;51.634;5.566;2023-04-24T20:10:05;17.50;60.50
58153;DHT22;43967;51.634;5.566;2023-04-24T20:15:26;17.50;60.50
58153;DHT22;43967;51.634;5.566;2023-04-24T20:20:48;17.50;60.30
58153;DHT22;43967;51.634;5.566;2023-04-24T20:26:09;17.50;60.30
58153;DHT22;43967;51.634;5.566;2023-04-24T20:31:30;17.40;60.20
58153;DHT22;43967;51.634;5.566;2023-04-24T20:36:51;17.40;60.10
58153;DHT22;43967;51.634;5.566;2023-04-24T20:42:13;17.40;60.00
58153;DHT22;43967;51.634;5.566;2023-04-24T20:47:34;17.40;60.10
58153;DHT22;43967;51.634;5.566;2023-04-24T20:52:55;17.40;60.00
58153;DHT22;43967;51.634;5.566;2023-04-24T20:58:16;17.40;60.20
58153;DHT22;43967;51.634;5.566;2023-04-24T21:03:38;17.40;60.50
58153;DHT22;43967;51.634;5.566;2023-04-24T21:08:59;17.40;60.70
58153;DHT22;43967;51.634;5.566;2023-04-24T21:14:20;17.40;60.90
58153;DHT22;43967;51.634;5.566;2023-04-24T21:19:42;17.40;61.00
58153;DHT22;43967;51.634;5.566;2023-04-24T21:25:03;17.40;61.10
58153;DHT22;43967;51.634;5.566;2023-04-24T21:30:24;17.50;61.20
58153;DHT22;43967;51.634;5.566;2023-04-24T21:35:46;17.40;61.20
58153;DHT22;43967;51.634;5.566;2023-04-24T21:41:07;17.50;61.30
58153;DHT22;43967;51.634;5.566;2023-04-24T21:46:28;17.50;61.20
58153;DHT22;43967;51.634;5.566;2023-04-24T21:51:49;17.50;61.10
58153;DHT22;43967;51.634;5.566;2023-04-24T21:57:11;17.50;60.90
58153;DHT22;43967;51.634;5.566;2023-04-24T22:02:33;17.50;60.60
58153;DHT22;43967;51.634;5.566;2023-04-24T22:07:55;17.50;60.50
58153;DHT22;43967;51.634;5.566;2023-04-24T22:13:16;17.50;60.20
58153;DHT22;43967;51.634;5.566;2023-04-24T22:18:37;17.50;60.10
58153;DHT22;43967;51.634;5.566;2023-04-24T22:23:58;17.50;59.80
58153;DHT22;43967;51.634;5.566;2023-04-24T22:29:20;17.50;59.60
58153;DHT22;43967;51.634;5.566;2023-04-24T22:34:41;17.40;59.50
58153;DHT22;43967;51.634;5.566;2023-04-24T22:40:02;17.40;59.50
58153;DHT22;43967;51.634;5.566;2023-04-24T22:45:24;17.40;59.50
58153;DHT22;43967;51.634;5.566;2023-04-24T22:50:45;17.40;59.40
58153;DHT22;43967;51.634;5.566;2023-04-24T22:56:06;17.40;59.40
58153;DHT22;43967;51.634;5.566;2023-04-24T23:01:28;17.40;59.30
58153;DHT22;43967;51.634;5.566;2023-04-24T23:06:49;17.30;59.30
58153;DHT22;43967;51.634;5.566;2023-04-24T23:12:10;17.30;59.30
58153;DHT22;43967;51.634;5.566;2023-04-24T23:17:31;17.30;59.30
58153;DHT22;43967;51.634;5.566;2023-04-24T23:22:53;17.30;59.10
58153;DHT22;43967;51.634;5.566;2023-04-24T23:28:14;17.30;59.10
58153;DHT22;43967;51.634;5.566;2023-04-24T23:33:35;17.30;59.30
58153;DHT22;43967;51.634;5.566;2023-04-24T23:38:56;17.40;59.60
58153;DHT22;43967;51.634;5.566;2023-04-24T23:44:18;17.30;59.80
58153;DHT22;43967;51.634;5.566;2023-04-24T23:49:39;17.30;60.00
58153;DHT22;43967;51.634;5.566;2023-04-24T23:55:02;17.30;60.20
